sensor_id;sensor_type;location;lat;lon;timestamp;temperature;humidity
65129;DHT22;51708;44.748;19.690;2022-07-10T00:00:41;24.20;42.70
65129;DHT22;51708;44.748;19.690;2022-07-10T00:03:07;24.10;43.20
65129;DHT22;51708;44.748;19.690;2022-07-10T00:05:33;24.10;43.00
65129;DHT22;51708;44.748;19.690;2022-07-10T00:08:02;24.20;42.60
65129;DHT22;51708;44.748;19.690;2022-07-10T00:10:28;24.10;42.90
65129;DHT22;51708;44.748;19.690;2022-07-10T00:12:54;24.10;43.10
65129;DHT22;51708;44.748;19.690;2022-07-10T00:15:20;24.00;43.10
65129;DHT22;51708;44.748;19.690;2022-07-10T00:17:46;24.10;42.90
65129;DHT22;51708;44.748;19.690;2022-07-10T00:20:13;24.20;42.80
65129;DHT22;51708;44.748;19.690;2022-07-10T00:22:41;24.00;43.20
65129;DHT22;51708;44.748;19.690;2022-07-10T00:25:10;23.80;43.60
65129;DHT22;51708;44.748;19.690;2022-07-10T00:27:36;23.80;43.50
65129;DHT22;51708;44.748;19.690;2022-07-10T00:30:02;23.90;43.20
65129;DHT22;51708;44.748;19.690;2022-07-10T00:32:28;23.90;43.40
65129;DHT22;51708;44.748;19.690;2022-07-10T00:34:54;23.90;43.30
65129;DHT22;51708;44.748;19.690;2022-07-10T00:37:19;23.90;43.10
65129;DHT22;51708;44.748;19.690;2022-07-10T00:39:49;23.80;43.50
65129;DHT22;51708;44.748;19.690;2022-07-10T00:42:15;23.70;43.80
65129;DHT22;51708;44.748;19.690;2022-07-10T00:44:42;23.60;43.80
65129;DHT22;51708;44.748;19.690;2022-07-10T00:47:09;23.70;43.60
65129;DHT22;51708;44.748;19.690;2022-07-10T00:49:37;23.60;43.90
65129;DHT22;51708;44.748;19.690;2022-07-10T00:52:06;23.30;44.60
65129;DHT22;51708;44.748;19.690;2022-07-10T00:54:34;23.40;44.40
65129;DHT22;51708;44.748;19.690;2022-07-10T00:57:01;23.30;44.70
65129;DHT22;51708;44.748;19.690;2022-07-10T00:59:29;23.40;44.60
65129;DHT22;51708;44.748;19.690;2022-07-10T01:01:55;23.40;44.50
65129;DHT22;51708;44.748;19.690;2022-07-10T01:04:21;23.40;44.50
65129;DHT22;51708;44.748;19.690;2022-07-10T01:06:47;23.50;44.30
65129;DHT22;51708;44.748;19.690;2022-07-10T01:09:12;23.40;44.40
65129;DHT22;51708;44.748;19.690;2022-07-10T01:11:39;23.30;44.80
65129;DHT22;51708;44.748;19.690;2022-07-10T01:14:05;23.30;44.70
65129;DHT22;51708;44.748;19.690;2022-07-10T01:16:32;23.30;44.60
65129;DHT22;51708;44.748;19.690;2022-07-10T01:18:58;23.10;45.20
65129;DHT22;51708;44.748;19.690;2022-07-10T01:21:32;22.90;45.70
65129;DHT22;51708;44.748;19.690;2022-07-10T01:23:59;22.80;45.80
65129;DHT22;51708;44.748;19.690;2022-07-10T01:26:25;22.90;45.70
65129;DHT22;51708;44.748;19.690;2022-07-10T01:28:53;22.90;45.50
65129;DHT22;51708;44.748;19.690;2022-07-10T01:31:20;23.00;45.50
65129;DHT22;51708;44.748;19.690;2022-07-10T01:33:49;23.00;45.40
65129;DHT22;51708;44.748;19.690;2022-07-10T01:36:16;22.90;45.50
65129;DHT22;51708;44.748;19.690;2022-07-10T01:38:42;22.90;45.70
65129;DHT22;51708;44.748;19.690;2022-07-10T01:41:08;22.80;46.00
65129;DHT22;51708;44.748;19.690;2022-07-10T01:43:38;22.90;45.80
65129;DHT22;51708;44.748;19.690;2022-07-10T01:46:08;22.80;45.90
65129;DHT22;51708;44.748;19.690;2022-07-10T01:48:37;22.80;46.00
65129;DHT22;51708;44.748;19.690;2022-07-10T01:51:03;22.90;45.80
65129;DHT22;51708;44.748;19.690;2022-07-10T01:53:29;22.90;45.70
65129;DHT22;51708;44.748;19.690;2022-07-10T01:55:55;22.90;45.50
65129;DHT22;51708;44.748;19.690;2022-07-10T01:58:21;22.90;45.80
65129;DHT22;51708;44.748;19.690;2022-07-10T02:00:47;22.90;45.70
65129;DHT22;51708;44.748;19.690;2022-07-10T02:03:13;22.90;45.70
65129;DHT22;51708;44.748;19.690;2022-07-10T02:05:57;22.80;46.10
65129;DHT22;51708;44.748;19.690;2022-07-10T02:08:23;22.80;45.80
65129;DHT22;51708;44.748;19.690;2022-07-10T02:10:49;22.90;45.70
65129;DHT22;51708;44.748;19.690;2022-07-10T02:13:15;23.00;45.50
65129;DHT22;51708;44.748;19.690;2022-07-10T02:15:43;23.00;45.50
65129;DHT22;51708;44.748;19.690;2022-07-10T02:18:09;22.90;45.70
65129;DHT22;51708;44.748;19.690;2022-07-10T02:20:35;22.90;45.70
65129;DHT22;51708;44.748;19.690;2022-07-10T02:23:02;23.00;45.50
65129;DHT22;51708;44.748;19.690;2022-07-10T02:25:28;23.10;45.20
65129;DHT22;51708;44.748;19.690;2022-07-10T02:27:54;23.00;45.20
65129;DHT22;51708;44.748;19.690;2022-07-10T02:30:20;22.90;45.40
65129;DHT22;51708;44.748;19.690;2022-07-10T02:32:45;22.90;45.40
65129;DHT22;51708;44.748;19.690;2022-07-10T02:35:11;23.00;45.30
65129;DHT22;51708;44.748;19.690;2022-07-10T02:37:37;23.00;45.10
65129;DHT22;51708;44.748;19.690;2022-07-10T02:40:03;23.00;45.10
65129;DHT22;51708;44.748;19.690;2022-07-10T02:42:29;22.90;45.30
65129;DHT22;51708;44.748;19.690;2022-07-10T02:44:55;22.90;45.40
65129;DHT22;51708;44.748;19.690;2022-07-10T02:47:20;22.90;45.20
65129;DHT22;51708;44.748;19.690;2022-07-10T02:49:46;22.90;45.10
65129;DHT22;51708;44.748;19.690;2022-07-10T02:52:12;22.90;45.30
65129;DHT22;51708;44.748;19.690;2022-07-10T02:54:37;22.80;45.40
65129;DHT22;51708;44.748;19.690;2022-07-10T02:57:04;22.90;45.30
65129;DHT22;51708;44.748;19.690;2022-07-10T02:59:30;22.70;45.60
65129;DHT22;51708;44.748;19.690;2022-07-10T03:01:56;22.60;45.80
65129;DHT22;51708;44.748;19.690;2022-07-10T03:04:21;22.60;45.90
65129;DHT22;51708;44.748;19.690;2022-07-10T03:06:47;22.60;46.00
65129;DHT22;51708;44.748;19.690;2022-07-10T03:09:13;22.60;45.80
65129;DHT22;51708;44.748;19.690;2022-07-10T03:11:39;22.50;46.00
65129;DHT22;51708;44.748;19.690;2022-07-10T03:14:05;22.50;46.30
65129;DHT22;51708;44.748;19.690;2022-07-10T03:16:31;22.30;46.70
65129;DHT22;51708;44.748;19.690;2022-07-10T03:18:57;22.40;46.40
65129;DHT22;51708;44.748;19.690;2022-07-10T03:21:23;22.30;46.70
65129;DHT22;51708;44.748;19.690;2022-07-10T03:23:49;22.20;46.70
65129;DHT22;51708;44.748;19.690;2022-07-10T03:26:15;22.20;46.80
65129;DHT22;51708;44.748;19.690;2022-07-10T03:28:41;22.10;47.00
65129;DHT22;51708;44.748;19.690;2022-07-10T03:31:07;22.10;48.00
65129;DHT22;51708;44.748;19.690;2022-07-10T03:33:33;22.10;47.40
65129;DHT22;51708;44.748;19.690;2022-07-10T03:35:59;22.10;47.20
65129;DHT22;51708;44.748;19.690;2022-07-10T03:38:27;22.20;47.00
65129;DHT22;51708;44.748;19.690;2022-07-10T03:40:53;22.20;47.00
65129;DHT22;51708;44.748;19.690;2022-07-10T03:43:19;22.30;46.60
65129;DHT22;51708;44.748;19.690;2022-07-10T03:45:45;22.20;46.60
65129;DHT22;51708;44.748;19.690;2022-07-10T03:48:11;22.20;46.70
65129;DHT22;51708;44.748;19.690;2022-07-10T03:50:37;22.20;46.60
65129;DHT22;51708;44.748;19.690;2022-07-10T03:53:03;22.30;46.40
65129;DHT22;51708;44.748;19.690;2022-07-10T03:55:29;22.40;46.20
65129;DHT22;51708;44.748;19.690;2022-07-10T03:57:54;22.30;46.50
65129;DHT22;51708;44.748;19.690;2022-07-10T04:00:25;22.40;46.40
65129;DHT22;51708;44.748;19.690;2022-07-10T04:02:56;22.40;46.30
65129;DHT22;51708;44.748;19.690;2022-07-10T04:05:23;22.40;46.60
65129;DHT22;51708;44.748;19.690;2022-07-10T04:07:49;22.20;46.80
65129;DHT22;51708;44.748;19.690;2022-07-10T04:10:15;22.00;47.80
65129;DHT22;51708;44.748;19.690;2022-07-10T04:12:41;21.90;47.70
65129;DHT22;51708;44.748;19.690;2022-07-10T04:15:08;22.00;47.80
65129;DHT22;51708;44.748;19.690;2022-07-10T04:17:33;21.90;48.00
65129;DHT22;51708;44.748;19.690;2022-07-10T04:20:00;21.70;48.90
65129;DHT22;51708;44.748;19.690;2022-07-10T04:22:26;21.80;48.60
65129;DHT22;51708;44.748;19.690;2022-07-10T04:24:53;21.90;48.50
65129;DHT22;51708;44.748;19.690;2022-07-10T04:27:19;21.90;48.40
65129;DHT22;51708;44.748;19.690;2022-07-10T04:29:45;21.90;48.60
65129;DHT22;51708;44.748;19.690;2022-07-10T04:32:11;21.60;49.50
65129;DHT22;51708;44.748;19.690;2022-07-10T04:34:37;21.80;49.20
65129;DHT22;51708;44.748;19.690;2022-07-10T04:37:03;21.90;49.00
65129;DHT22;51708;44.748;19.690;2022-07-10T04:39:29;21.90;49.10
65129;DHT22;51708;44.748;19.690;2022-07-10T04:41:55;21.80;49.60
65129;DHT22;51708;44.748;19.690;2022-07-10T04:44:21;21.70;49.70
65129;DHT22;51708;44.748;19.690;2022-07-10T04:46:46;21.70;49.80
65129;DHT22;51708;44.748;19.690;2022-07-10T04:49:13;22.00;49.10
65129;DHT22;51708;44.748;19.690;2022-07-10T04:51:39;22.10;48.70
65129;DHT22;51708;44.748;19.690;2022-07-10T04:54:05;22.10;48.90
65129;DHT22;51708;44.748;19.690;2022-07-10T04:56:31;22.00;49.10
65129;DHT22;51708;44.748;19.690;2022-07-10T04:58:57;21.90;49.40
65129;DHT22;51708;44.748;19.690;2022-07-10T05:01:23;22.10;49.20
65129;DHT22;51708;44.748;19.690;2022-07-10T05:03:49;22.10;49.00
65129;DHT22;51708;44.748;19.690;2022-07-10T05:06:15;22.20;48.90
65129;DHT22;51708;44.748;19.690;2022-07-10T05:08:40;22.10;49.20
65129;DHT22;51708;44.748;19.690;2022-07-10T05:11:06;22.10;49.50
65129;DHT22;51708;44.748;19.690;2022-07-10T05:13:32;22.00;49.90
65129;DHT22;51708;44.748;19.690;2022-07-10T05:15:58;21.90;49.90
65129;DHT22;51708;44.748;19.690;2022-07-10T05:18:23;21.90;50.00
65129;DHT22;51708;44.748;19.690;2022-07-10T05:20:49;22.00;50.20
65129;DHT22;51708;44.748;19.690;2022-07-10T05:23:15;21.80;51.00
65129;DHT22;51708;44.748;19.690;2022-07-10T05:25:41;21.90;50.80
65129;DHT22;51708;44.748;19.690;2022-07-10T05:28:07;21.90;50.80
65129;DHT22;51708;44.748;19.690;2022-07-10T05:30:33;21.90;51.00
65129;DHT22;51708;44.748;19.690;2022-07-10T05:33:00;22.00;50.90
65129;DHT22;51708;44.748;19.690;2022-07-10T05:35:26;22.00;51.20
65129;DHT22;51708;44.748;19.690;2022-07-10T05:37:53;22.00;51.60
65129;DHT22;51708;44.748;19.690;2022-07-10T05:40:19;22.00;51.60
65129;DHT22;51708;44.748;19.690;2022-07-10T05:42:44;22.10;51.80
65129;DHT22;51708;44.748;19.690;2022-07-10T05:45:11;22.10;51.80
65129;DHT22;51708;44.748;19.690;2022-07-10T05:47:37;22.20;51.80
65129;DHT22;51708;44.748;19.690;2022-07-10T05:50:03;22.20;52.00
65129;DHT22;51708;44.748;19.690;2022-07-10T05:52:29;22.20;51.60
65129;DHT22;51708;44.748;19.690;2022-07-10T05:54:56;22.10;52.30
65129;DHT22;51708;44.748;19.690;2022-07-10T05:57:22;22.10;52.00
65129;DHT22;51708;44.748;19.690;2022-07-10T05:59:48;22.10;52.30
65129;DHT22;51708;44.748;19.690;2022-07-10T06:02:14;22.10;52.30
65129;DHT22;51708;44.748;19.690;2022-07-10T06:04:40;22.10;52.90
65129;DHT22;51708;44.748;19.690;2022-07-10T06:07:06;22.00;52.90
65129;DHT22;51708;44.748;19.690;2022-07-10T06:09:32;21.90;53.20
65129;DHT22;51708;44.748;19.690;2022-07-10T06:11:58;22.10;52.80
65129;DHT22;51708;44.748;19.690;2022-07-10T06:14:24;22.10;52.90
65129;DHT22;51708;44.748;19.690;2022-07-10T06:16:50;22.00;53.10
65129;DHT22;51708;44.748;19.690;2022-07-10T06:19:15;22.00;52.80
65129;DHT22;51708;44.748;19.690;2022-07-10T06:21:43;22.10;52.80
65129;DHT22;51708;44.748;19.690;2022-07-10T06:24:08;22.20;52.80
65129;DHT22;51708;44.748;19.690;2022-07-10T06:26:34;22.20;53.20
65129;DHT22;51708;44.748;19.690;2022-07-10T06:29:00;22.10;53.20
65129;DHT22;51708;44.748;19.690;2022-07-10T06:31:26;22.30;52.90
65129;DHT22;51708;44.748;19.690;2022-07-10T06:33:51;22.40;52.60
65129;DHT22;51708;44.748;19.690;2022-07-10T06:36:17;22.00;53.70
65129;DHT22;51708;44.748;19.690;2022-07-10T06:38:43;22.10;53.30
65129;DHT22;51708;44.748;19.690;2022-07-10T06:41:09;22.20;53.60
65129;DHT22;51708;44.748;19.690;2022-07-10T06:43:35;22.30;53.50
65129;DHT22;51708;44.748;19.690;2022-07-10T06:46:00;22.30;53.10
65129;DHT22;51708;44.748;19.690;2022-07-10T06:48:27;22.50;52.80
65129;DHT22;51708;44.748;19.690;2022-07-10T06:50:53;22.70;52.50
65129;DHT22;51708;44.748;19.690;2022-07-10T06:53:19;22.90;51.40
65129;DHT22;51708;44.748;19.690;2022-07-10T06:55:51;22.80;51.80
65129;DHT22;51708;44.748;19.690;2022-07-10T06:58:17;22.50;52.30
65129;DHT22;51708;44.748;19.690;2022-07-10T07:00:43;22.40;53.00
65129;DHT22;51708;44.748;19.690;2022-07-10T07:03:09;22.50;52.50
65129;DHT22;51708;44.748;19.690;2022-07-10T07:05:35;22.60;52.20
65129;DHT22;51708;44.748;19.690;2022-07-10T07:08:00;22.30;52.60
65129;DHT22;51708;44.748;19.690;2022-07-10T07:10:26;22.20;52.90
65129;DHT22;51708;44.748;19.690;2022-07-10T07:12:52;22.40;52.50
65129;DHT22;51708;44.748;19.690;2022-07-10T07:15:18;22.70;51.40
65129;DHT22;51708;44.748;19.690;2022-07-10T07:17:46;23.00;50.70
65129;DHT22;51708;44.748;19.690;2022-07-10T07:20:30;23.20;50.70
65129;DHT22;51708;44.748;19.690;2022-07-10T07:23:14;23.40;50.30
65129;DHT22;51708;44.748;19.690;2022-07-10T07:25:41;23.50;49.80
65129;DHT22;51708;44.748;19.690;2022-07-10T07:28:13;23.50;50.00
65129;DHT22;51708;44.748;19.690;2022-07-10T07:30:41;23.60;49.50
65129;DHT22;51708;44.748;19.690;2022-07-10T07:33:07;23.60;48.70
65129;DHT22;51708;44.748;19.690;2022-07-10T07:35:33;23.50;48.60
65129;DHT22;51708;44.748;19.690;2022-07-10T07:37:59;23.00;50.20
65129;DHT22;51708;44.748;19.690;2022-07-10T07:40:26;22.90;50.50
65129;DHT22;51708;44.748;19.690;2022-07-10T07:42:54;23.00;50.10
65129;DHT22;51708;44.748;19.690;2022-07-10T07:45:20;23.20;50.10
65129;DHT22;51708;44.748;19.690;2022-07-10T07:47:48;23.30;49.90
65129;DHT22;51708;44.748;19.690;2022-07-10T07:50:19;23.50;49.40
65129;DHT22;51708;44.748;19.690;2022-07-10T07:52:46;23.60;48.70
65129;DHT22;51708;44.748;19.690;2022-07-10T07:55:13;23.50;49.00
65129;DHT22;51708;44.748;19.690;2022-07-10T07:57:40;23.30;48.70
65129;DHT22;51708;44.748;19.690;2022-07-10T08:00:08;23.20;48.90
65129;DHT22;51708;44.748;19.690;2022-07-10T08:02:34;23.50;48.50
65129;DHT22;51708;44.748;19.690;2022-07-10T08:05:01;23.50;47.80
65129;DHT22;51708;44.748;19.690;2022-07-10T08:07:37;23.70;47.80
65129;DHT22;51708;44.748;19.690;2022-07-10T08:10:05;23.90;47.50
65129;DHT22;51708;44.748;19.690;2022-07-10T08:12:32;23.90;47.60
65129;DHT22;51708;44.748;19.690;2022-07-10T08:14:58;23.70;47.70
65129;DHT22;51708;44.748;19.690;2022-07-10T08:17:25;23.50;48.10
65129;DHT22;51708;44.748;19.690;2022-07-10T08:19:51;23.50;47.50
65129;DHT22;51708;44.748;19.690;2022-07-10T08:22:17;23.70;47.50
65129;DHT22;51708;44.748;19.690;2022-07-10T08:24:43;23.90;47.00
65129;DHT22;51708;44.748;19.690;2022-07-10T08:27:08;24.10;46.40
65129;DHT22;51708;44.748;19.690;2022-07-10T08:29:34;24.30;46.20
65129;DHT22;51708;44.748;19.690;2022-07-10T08:32:00;24.50;45.30
65129;DHT22;51708;44.748;19.690;2022-07-10T08:34:26;24.60;44.60
65129;DHT22;51708;44.748;19.690;2022-07-10T08:36:53;24.70;44.50
65129;DHT22;51708;44.748;19.690;2022-07-10T08:39:19;24.50;44.50
65129;DHT22;51708;44.748;19.690;2022-07-10T08:41:48;24.50;44.40
65129;DHT22;51708;44.748;19.690;2022-07-10T08:44:17;24.60;44.30
65129;DHT22;51708;44.748;19.690;2022-07-10T08:46:44;24.70;44.50
65129;DHT22;51708;44.748;19.690;2022-07-10T08:49:10;24.90;44.10
65129;DHT22;51708;44.748;19.690;2022-07-10T08:54:18;24.80;43.80
65129;DHT22;51708;44.748;19.690;2022-07-10T08:56:44;24.80;44.00
65129;DHT22;51708;44.748;19.690;2022-07-10T08:59:12;24.90;43.60
65129;DHT22;51708;44.748;19.690;2022-07-10T09:01:39;24.90;43.60
65129;DHT22;51708;44.748;19.690;2022-07-10T09:04:05;25.00;43.60
65129;DHT22;51708;44.748;19.690;2022-07-10T09:06:31;25.00;43.30
65129;DHT22;51708;44.748;19.690;2022-07-10T09:09:03;25.00;42.50
65129;DHT22;51708;44.748;19.690;2022-07-10T09:11:29;24.90;42.30
65129;DHT22;51708;44.748;19.690;2022-07-10T09:13:58;25.00;42.50
65129;DHT22;51708;44.748;19.690;2022-07-10T09:16:29;24.90;42.70
65129;DHT22;51708;44.748;19.690;2022-07-10T09:18:55;25.00;43.10
65129;DHT22;51708;44.748;19.690;2022-07-10T09:21:22;24.80;42.60
65129;DHT22;51708;44.748;19.690;2022-07-10T09:23:48;24.40;42.80
65129;DHT22;51708;44.748;19.690;2022-07-10T09:26:15;24.20;43.40
65129;DHT22;51708;44.748;19.690;2022-07-10T09:28:41;24.50;43.10
65129;DHT22;51708;44.748;19.690;2022-07-10T09:31:06;24.80;42.10
65129;DHT22;51708;44.748;19.690;2022-07-10T09:33:32;24.80;42.50
65129;DHT22;51708;44.748;19.690;2022-07-10T09:36:06;25.00;42.10
65129;DHT22;51708;44.748;19.690;2022-07-10T09:41:28;25.40;41.40
65129;DHT22;51708;44.748;19.690;2022-07-10T09:43:59;25.40;41.30
65129;DHT22;51708;44.748;19.690;2022-07-10T09:46:36;25.10;40.30
65129;DHT22;51708;44.748;19.690;2022-07-10T09:49:09;25.00;41.00
65129;DHT22;51708;44.748;19.690;2022-07-10T09:54:09;25.00;41.70
65129;DHT22;51708;44.748;19.690;2022-07-10T09:56:49;25.30;41.60
65129;DHT22;51708;44.748;19.690;2022-07-10T09:59:19;25.50;41.50
65129;DHT22;51708;44.748;19.690;2022-07-10T10:01:49;25.40;41.20
65129;DHT22;51708;44.748;19.690;2022-07-10T10:04:17;25.40;41.00
65129;DHT22;51708;44.748;19.690;2022-07-10T10:06:46;25.30;40.50
65129;DHT22;51708;44.748;19.690;2022-07-10T10:09:24;25.40;40.70
65129;DHT22;51708;44.748;19.690;2022-07-10T10:11:55;25.60;40.60
65129;DHT22;51708;44.748;19.690;2022-07-10T10:14:23;25.70;40.00
65129;DHT22;51708;44.748;19.690;2022-07-10T10:16:50;25.90;39.10
65129;DHT22;51708;44.748;19.690;2022-07-10T10:19:19;26.10;38.80
65129;DHT22;51708;44.748;19.690;2022-07-10T10:22:06;26.00;37.90
65129;DHT22;51708;44.748;19.690;2022-07-10T10:24:33;25.80;39.10
65129;DHT22;51708;44.748;19.690;2022-07-10T10:27:00;25.70;40.50
65129;DHT22;51708;44.748;19.690;2022-07-10T10:29:27;25.60;40.10
65129;DHT22;51708;44.748;19.690;2022-07-10T10:31:53;25.90;39.40
65129;DHT22;51708;44.748;19.690;2022-07-10T10:34:42;26.00;38.10
65129;DHT22;51708;44.748;19.690;2022-07-10T10:37:33;26.20;36.90
65129;DHT22;51708;44.748;19.690;2022-07-10T10:39:59;26.30;36.30
65129;DHT22;51708;44.748;19.690;2022-07-10T10:42:41;26.40;36.00
65129;DHT22;51708;44.748;19.690;2022-07-10T10:45:33;26.50;36.70
65129;DHT22;51708;44.748;19.690;2022-07-10T10:48:09;26.70;37.20
65129;DHT22;51708;44.748;19.690;2022-07-10T10:53:14;26.90;36.90
65129;DHT22;51708;44.748;19.690;2022-07-10T10:56:20;27.00;36.00
65129;DHT22;51708;44.748;19.690;2022-07-10T10:58:44;27.10;34.50
65129;DHT22;51708;44.748;19.690;2022-07-10T11:01:26;26.90;36.30
65129;DHT22;51708;44.748;19.690;2022-07-10T11:09:30;27.40;33.40
65129;DHT22;51708;44.748;19.690;2022-07-10T11:12:10;27.10;33.90
65129;DHT22;51708;44.748;19.690;2022-07-10T11:14:40;27.30;33.90
65129;DHT22;51708;44.748;19.690;2022-07-10T11:17:08;27.30;33.80
65129;DHT22;51708;44.748;19.690;2022-07-10T11:19:35;27.60;33.50
65129;DHT22;51708;44.748;19.690;2022-07-10T11:28:04;27.70;33.50
65129;DHT22;51708;44.748;19.690;2022-07-10T11:30:53;27.20;34.10
65129;DHT22;51708;44.748;19.690;2022-07-10T11:33:21;27.10;34.40
65129;DHT22;51708;44.748;19.690;2022-07-10T11:35:52;27.60;33.90
65129;DHT22;51708;44.748;19.690;2022-07-10T11:38:21;28.10;33.70
65129;DHT22;51708;44.748;19.690;2022-07-10T11:40:47;28.50;32.80
65129;DHT22;51708;44.748;19.690;2022-07-10T11:43:13;28.90;32.70
65129;DHT22;51708;44.748;19.690;2022-07-10T11:45:43;29.20;31.40
65129;DHT22;51708;44.748;19.690;2022-07-10T11:48:19;29.90;31.10
65129;DHT22;51708;44.748;19.690;2022-07-10T11:50:47;29.60;30.90
65129;DHT22;51708;44.748;19.690;2022-07-10T11:53:13;29.50;31.30
65129;DHT22;51708;44.748;19.690;2022-07-10T11:55:39;28.80;32.20
65129;DHT22;51708;44.748;19.690;2022-07-10T11:58:18;29.10;32.20
65129;DHT22;51708;44.748;19.690;2022-07-10T12:00:56;29.90;30.50
65129;DHT22;51708;44.748;19.690;2022-07-10T12:03:22;31.00;29.40
65129;DHT22;51708;44.748;19.690;2022-07-10T12:05:48;32.30;28.10
65129;DHT22;51708;44.748;19.690;2022-07-10T12:08:16;32.60;27.40
65129;DHT22;51708;44.748;19.690;2022-07-10T12:10:42;32.10;27.50
65129;DHT22;51708;44.748;19.690;2022-07-10T12:13:13;31.20;28.90
65129;DHT22;51708;44.748;19.690;2022-07-10T12:15:44;31.70;28.60
65129;DHT22;51708;44.748;19.690;2022-07-10T12:18:21;32.40;27.80
65129;DHT22;51708;44.748;19.690;2022-07-10T12:20:48;32.50;27.60
65129;DHT22;51708;44.748;19.690;2022-07-10T12:23:15;32.90;26.50
65129;DHT22;51708;44.748;19.690;2022-07-10T12:25:46;33.50;26.00
65129;DHT22;51708;44.748;19.690;2022-07-10T12:28:15;33.50;25.70
65129;DHT22;51708;44.748;19.690;2022-07-10T12:30:48;33.60;25.60
65129;DHT22;51708;44.748;19.690;2022-07-10T12:33:21;33.80;25.70
65129;DHT22;51708;44.748;19.690;2022-07-10T12:35:58;34.60;25.70
65129;DHT22;51708;44.748;19.690;2022-07-10T12:38:28;35.10;24.80
65129;DHT22;51708;44.748;19.690;2022-07-10T12:41:07;35.80;24.50
65129;DHT22;51708;44.748;19.690;2022-07-10T12:43:34;36.80;23.30
65129;DHT22;51708;44.748;19.690;2022-07-10T12:46:15;37.30;23.60
65129;DHT22;51708;44.748;19.690;2022-07-10T12:49:05;38.50;22.20
65129;DHT22;51708;44.748;19.690;2022-07-10T12:51:33;39.50;21.80
65129;DHT22;51708;44.748;19.690;2022-07-10T12:53:59;40.40;21.20
65129;DHT22;51708;44.748;19.690;2022-07-10T12:56:27;40.90;20.50
65129;DHT22;51708;44.748;19.690;2022-07-10T12:58:53;40.40;20.50
65129;DHT22;51708;44.748;19.690;2022-07-10T13:01:19;39.90;20.70
65129;DHT22;51708;44.748;19.690;2022-07-10T13:03:44;39.80;20.40
65129;DHT22;51708;44.748;19.690;2022-07-10T13:06:27;39.20;21.20
65129;DHT22;51708;44.748;19.690;2022-07-10T13:08:54;39.30;20.70
65129;DHT22;51708;44.748;19.690;2022-07-10T13:11:20;40.00;20.90
65129;DHT22;51708;44.748;19.690;2022-07-10T13:13:47;40.90;19.90
65129;DHT22;51708;44.748;19.690;2022-07-10T13:16:13;41.70;19.30
65129;DHT22;51708;44.748;19.690;2022-07-10T13:18:42;42.60;18.00
65129;DHT22;51708;44.748;19.690;2022-07-10T13:21:09;41.80;18.80
65129;DHT22;51708;44.748;19.690;2022-07-10T13:23:37;41.70;18.90
65129;DHT22;51708;44.748;19.690;2022-07-10T13:26:04;41.40;19.30
65129;DHT22;51708;44.748;19.690;2022-07-10T13:28:32;40.60;19.50
65129;DHT22;51708;44.748;19.690;2022-07-10T13:30:58;39.50;20.00
65129;DHT22;51708;44.748;19.690;2022-07-10T13:33:24;38.30;21.20
65129;DHT22;51708;44.748;19.690;2022-07-10T13:35:51;37.00;22.30
65129;DHT22;51708;44.748;19.690;2022-07-10T13:38:18;35.50;23.20
65129;DHT22;51708;44.748;19.690;2022-07-10T13:40:45;34.30;24.50
65129;DHT22;51708;44.748;19.690;2022-07-10T13:43:13;33.50;25.20
65129;DHT22;51708;44.748;19.690;2022-07-10T13:45:39;33.30;25.40
65129;DHT22;51708;44.748;19.690;2022-07-10T13:48:12;33.30;25.40
65129;DHT22;51708;44.748;19.690;2022-07-10T13:50:39;33.60;25.40
65129;DHT22;51708;44.748;19.690;2022-07-10T13:53:05;33.00;25.40
65129;DHT22;51708;44.748;19.690;2022-07-10T13:55:33;32.50;26.20
65129;DHT22;51708;44.748;19.690;2022-07-10T13:57:59;32.00;26.90
65129;DHT22;51708;44.748;19.690;2022-07-10T14:00:25;32.50;26.90
65129;DHT22;51708;44.748;19.690;2022-07-10T14:02:51;33.00;26.00
65129;DHT22;51708;44.748;19.690;2022-07-10T14:05:17;32.70;26.10
65129;DHT22;51708;44.748;19.690;2022-07-10T14:07:42;32.20;26.60
65129;DHT22;51708;44.748;19.690;2022-07-10T14:10:08;32.10;26.40
65129;DHT22;51708;44.748;19.690;2022-07-10T14:12:34;32.30;26.60
65129;DHT22;51708;44.748;19.690;2022-07-10T14:15:00;32.70;26.30
65129;DHT22;51708;44.748;19.690;2022-07-10T14:17:26;32.30;26.60
65129;DHT22;51708;44.748;19.690;2022-07-10T14:19:53;32.10;27.00
65129;DHT22;51708;44.748;19.690;2022-07-10T14:22:19;31.90;26.90
65129;DHT22;51708;44.748;19.690;2022-07-10T14:24:45;31.70;27.10
65129;DHT22;51708;44.748;19.690;2022-07-10T14:27:11;31.50;27.30
65129;DHT22;51708;44.748;19.690;2022-07-10T14:29:37;31.30;27.70
65129;DHT22;51708;44.748;19.690;2022-07-10T14:32:03;31.40;27.90
65129;DHT22;51708;44.748;19.690;2022-07-10T14:34:29;31.30;27.70
65129;DHT22;51708;44.748;19.690;2022-07-10T14:36:55;31.20;27.50
65129;DHT22;51708;44.748;19.690;2022-07-10T14:39:21;31.10;28.00
65129;DHT22;51708;44.748;19.690;2022-07-10T14:41:47;31.10;28.00
65129;DHT22;51708;44.748;19.690;2022-07-10T14:44:12;30.80;27.90
65129;DHT22;51708;44.748;19.690;2022-07-10T14:46:38;30.20;28.60
65129;DHT22;51708;44.748;19.690;2022-07-10T14:49:04;29.90;28.90
65129;DHT22;51708;44.748;19.690;2022-07-10T14:51:30;30.00;29.20
65129;DHT22;51708;44.748;19.690;2022-07-10T14:53:56;30.40;28.80
65129;DHT22;51708;44.748;19.690;2022-07-10T14:56:23;30.50;28.90
65129;DHT22;51708;44.748;19.690;2022-07-10T14:58:49;30.30;28.60
65129;DHT22;51708;44.748;19.690;2022-07-10T15:01:15;29.70;29.50
65129;DHT22;51708;44.748;19.690;2022-07-10T15:03:41;29.50;29.70
65129;DHT22;51708;44.748;19.690;2022-07-10T15:06:07;29.60;29.70
65129;DHT22;51708;44.748;19.690;2022-07-10T15:08:33;29.50;29.70
65129;DHT22;51708;44.748;19.690;2022-07-10T15:11:00;29.60;30.40
65129;DHT22;51708;44.748;19.690;2022-07-10T15:13:28;29.70;30.00
65129;DHT22;51708;44.748;19.690;2022-07-10T15:15:54;29.70;29.80
65129;DHT22;51708;44.748;19.690;2022-07-10T15:18:20;29.50;30.70
65129;DHT22;51708;44.748;19.690;2022-07-10T15:20:47;29.40;30.70
65129;DHT22;51708;44.748;19.690;2022-07-10T15:23:13;29.50;30.80
65129;DHT22;51708;44.748;19.690;2022-07-10T15:25:40;29.40;31.20
65129;DHT22;51708;44.748;19.690;2022-07-10T15:28:07;29.50;31.10
65129;DHT22;51708;44.748;19.690;2022-07-10T15:30:34;29.60;30.90
65129;DHT22;51708;44.748;19.690;2022-07-10T15:32:59;29.60;30.60
65129;DHT22;51708;44.748;19.690;2022-07-10T15:35:25;29.60;31.00
65129;DHT22;51708;44.748;19.690;2022-07-10T15:37:51;29.60;31.10
65129;DHT22;51708;44.748;19.690;2022-07-10T15:40:17;29.70;31.10